Metar Cercanos

 

LEPA - Palma De Mallorc, Spain
Distance from station: ONO 38km
Actualización: 18/02/2018 04:00
Muy nuboso
Muy nuboso
 Viento del ENE
Viento: ENE 15 km/h
Temperatura: 12°C
Rocío: 7°C
Humedad: 72%
Barómetro: 1021 hPa
Clouds: Muy nuboso
Visibility: 10 km
Cloud details: Few Clouds 610 m
Muy nuboso 1829 m
2018/02/18 03:00 LEPA 180300Z 06008KT 9999 FEW020 BKN060 12/07 Q1021 NOSIG
LEMH - Mahon/Menorca Is, Spain
Distance from station: ENE 105km
Actualización: 18/02/2018 04:00
Despejado
Despejado
 Viento del NNE
Viento: NNE 35 km/h
Temperatura: 11°C
Rocío: 6°C
Humedad: 72%
Barómetro: 1021 hPa
Resumen: Despejado
Visibility: greater than 10 km
2018/02/18 03:00 LEMH 180300Z AUTO 03019KT CAVOK 11/06 Q1021
 
LEIB - Ibiza/Es Codola, Spain
Distance from station: OSO 165km
Actualización: 18/02/2018 00:00
NOT Current
Muy nuboso
Muy nuboso
 Viento del ENE
Viento: ENE 19 km/h
Temperatura: 14°C
Rocío: 11°C
Humedad: 82%
Barómetro: 1022 hPa
Clouds: Muy nuboso
Visibility: 10 km
Cloud details: Few Clouds 549 m
Muy nuboso 914 m
2018/02/17 23:00 LEIB 172300Z 06010KT 030V090 9999 FEW018 BKN030 14/11 Q1022 NOSIG
LEBL - Barcelona Airpor, Spain
Distance from station: NNO 225km
Actualización: 18/02/2018 04:00
Few Clouds
Few Clouds
 Viento del NNO
Viento: NNO 11 km/h
Temperatura: 9°C
Sensación frio: 7°C
Rocío: 5°C
Humedad: 76%
Barómetro: 1021 hPa
Clouds: Few Clouds
Visibility: 10 km
Cloud details: Few Clouds 914 m
2018/02/18 03:00 LEBL 180300Z 33006KT 290V350 9999 FEW030 09/05 Q1021 NOSIG
 
LEVC - Valencia (civ/Mi, Spain
Distance from station: NO 188km
Actualización: 18/02/2018 04:00
Parcialmente nuboso
Parcialmente nuboso
 Viento del NNO
Viento: NNO 11 km/h
Temperatura: 12°C
Rocío: 9°C
Humedad: 82%
Barómetro: 1023 hPa
Clouds: Parcialmente nuboso
Visibility: 10 km
Cloud details: Few Clouds 914 m
Parcialmente nuboso 1829 m
2018/02/18 03:00 LEVC 180300Z 33006KT 9999 FEW030 SCT060 12/09 Q1023 NOSIG
LEGE - Gerona/Costa Bra, Spain
Distance from station: N 276km
Actualización: 18/02/2018 04:00
Patches of fog, Mist, Muy nuboso
Patches of fog, Mist, Muy nuboso
 Viento del varies
Viento: varies 2 km/h
Temperatura: 7°C
Rocío: 7°C
Humedad: 100%
Barómetro: 1022 hPa
Resumen: Patches of fog, Mist
Clouds: Muy nuboso
Visibility: 2 km
Cloud details: Muy nuboso 30 m
2018/02/18 03:00 LEGE 180300Z VRB01KT 2000 0800SW R02/0900D BCFG BR BKN001 07/07 Q1022
 
LEAL - Alicante/El Alte, Spain
Distance from station: OSO 344km
Actualización: 18/02/2018 04:00
Parcialmente nuboso
Parcialmente nuboso
 Viento del N
Viento: N 6 km/h
Temperatura: 12°C
Rocío: 10°C
Humedad: 88%
Barómetro: 1021 hPa
Clouds: Parcialmente nuboso
Visibility: 10 km
Cloud details: Few Clouds 975 m
Parcialmente nuboso 1524 m
2018/02/18 03:00 LEAL 180300Z 36003KT 9999 FEW032 SCT050 12/10 Q1021 NOSIG
LEAM - Almeria Airport, Spain
Distance from station: SSO 56km
Actualización: 18/02/2018 04:00
Despejado
Despejado
 Viento del N
Viento: N 6 km/h
Temperatura: 11°C
Rocío: 8°C
Humedad: 82%
Barómetro: 1020 hPa
Clouds: Despejado
Visibility: 10 km
2018/02/18 03:00 LEAM 180300Z AUTO 35003KT 280V020 9999 NCD 11/08 Q1020
 
LEZG - Zaragoza (mil/Ci, Spain
Distance from station: NO 431km
Actualización: 18/02/2018 04:00
Few Clouds
Few Clouds
 Viento del ONO
Viento: ONO 28 km/h
Temperatura: 6°C
Sensación frio: 2°C
Rocío: 2°C
Humedad: 76%
Barómetro: 1024 hPa
Clouds: Few Clouds
Visibility: 10 km
Cloud details: Few Clouds 1951 m
2018/02/18 03:00 LEZG 180300Z 29015KT 9999 FEW064 06/02 Q1024
LEMD - Madrid/Barajas, Spain
Distance from station: ONO 234km
Actualización: 18/02/2018 04:00
Despejado
Despejado
 Viento del varies
Viento: varies 4 km/h
Temperatura: 3°C
Rocío: -1°C
Humedad: 75%
Barómetro: 1024 hPa
Resumen: Despejado
Visibility: greater than 10 km
2018/02/18 03:00 LEMD 180300Z VRB02KT CAVOK 03/M01 Q1024 NOSIG
 
LEGR - Granada Airport, Spain
Distance from station: OSO 62km
Actualización: 18/02/2018 04:00
Despejado
Despejado
 Viento del calm
Viento: Calma
Temperatura: 3°C
Rocío: 2°C
Humedad: 93%
Barómetro: 1021 hPa
Clouds: Despejado
Visibility: 10 km
2018/02/18 03:00 LEGR 180300Z AUTO 00000KT 9999 NCD 03/02 Q1021
LEMG - Malaga (civ/Mil), Spain
Distance from station: OSO 227km
Actualización: 18/02/2018 04:00
Despejado
Despejado
 Viento del O
Viento: O 24 km/h
Temperatura: 14°C
Rocío: 8°C
Humedad: 67%
Barómetro: 1020 hPa
Resumen: Despejado
Visibility: greater than 10 km
2018/02/18 03:00 LEMG 180300Z 28013KT CAVOK 14/08 Q1020 NOSIG
 
LEZL - Sevilla (civ/Mil, Spain
Distance from station: S 318km
Actualización: 18/02/2018 04:00
Mist, Parcialmente nuboso
Mist, Parcialmente nuboso
 Viento del varies
Viento: varies 4 km/h
Temperatura: 7°C
Rocío: 7°C
Humedad: 100%
Barómetro: 1021 hPa
Resumen: Mist
Clouds: Parcialmente nuboso
Visibility: 5 km
2018/02/18 03:00 LEZL 180300Z VRB02KT 5000 BR NSC 07/07 Q1021 NOSIG
LEVT - Vitoria, Spain
Distance from station: NO 226km
Actualización: 18/02/2018 04:00
Muy nuboso
Muy nuboso
 Viento del varies
Viento: varies 2 km/h
Temperatura: 3°C
Rocío: 3°C
Humedad: 100%
Barómetro: 1027 hPa
Clouds: Muy nuboso
Visibility: 10 km
Cloud details: Parcialmente nuboso 549 m
Muy nuboso 1219 m
2018/02/18 03:00 LEVT 180300Z VRB01KT 9999 SCT018 BKN040 03/03 Q1027
 
LEBB - Bilbao/Sondica, Spain
Distance from station: NNO 235km
Actualización: 18/02/2018 04:00
Lluvia débil, Parcialmente nuboso
Lluvia débil, Parcialmente nuboso
 Viento del E
Viento: E 6 km/h
Temperatura: 7°C
Rocío: 6°C
Humedad: 93%
Barómetro: 1028 hPa
Resumen: Lluvia débil
Clouds: Parcialmente nuboso
Visibility: 10 km
Cloud details: Parcialmente nuboso 1463 m
Parcialmente nuboso 1829 m
2018/02/18 03:00 LEBB 180300Z AUTO 10003KT 080V150 9999 -RA SCT048/// SCT060/// 07/06 Q1028
LESO - San Sebastian/Fu, Spain
Distance from station: N 231km
Actualización: 18/02/2018 04:00
Few Clouds
Few Clouds
 Viento del SSO
Viento: SSO 6 km/h
Temperatura: 7°C
Rocío: 6°C
Humedad: 93%
Barómetro: 1028 hPa
Clouds: Few Clouds
Visibility: 8 km
Cloud details: Few Clouds 1402 m
2018/02/18 03:00 LESO 180300Z AUTO 21003KT 8000 FEW046 07/06 Q1028
 
LEVD - Valladolid(Mil/C, Spain
Distance from station: ONO 239km
Actualización: 17/02/2018 21:30
NOT Current
Muy nuboso
Muy nuboso
 Viento del NE
Viento: NE 15 km/h
Temperatura: 3°C
Sensación frio: -1°C
Rocío: 0°C
Humedad: 81%
Barómetro: 1026 hPa
Clouds: Muy nuboso
Visibility: 10 km
Cloud details: Muy nuboso 1494 m
2018/02/17 20:30 LEVD 172030Z 05008KT 9999 BKN049 03/M00 Q1026
LESA - Salamanca (civ/M, Spain
Distance from station: ONO 349km
Actualización: 17/02/2018 19:00
NOT Current
Few Clouds
Few Clouds
 Viento del ENE
Viento: ENE 19 km/h
Temperatura: 8°C
Sensación frio: 4°C
Rocío: 2°C
Humedad: 66%
Barómetro: 1025 hPa
Clouds: Few Clouds
Visibility: 10 km
Cloud details: Few Clouds 914 m
2018/02/17 18:00 LESA 171800Z 07010KT 9999 FEW030 08/02 Q1025
 
LEXJ - Santander/Paraya, Spain
Distance from station: NNO 247km
Actualización: 18/02/2018 04:00
Few Clouds
Few Clouds
 Viento del OSO
Viento: OSO 9 km/h
Temperatura: 8°C
Sensación frio: 6°C
Rocío: 5°C
Humedad: 82%
Barómetro: 1028 hPa
Clouds: Few Clouds
Visibility: 8 km
Cloud details: Few Clouds 1798 m
2018/02/18 03:00 LEXJ 180300Z AUTO 25005KT 220V280 8000 FEW059 08/05 Q1028
LEAS - Asturias/Aviles, Spain
Distance from station: NO 214km
Actualización: 18/02/2018 04:00
Parcialmente nuboso
Parcialmente nuboso
 Viento del SO
Viento: SO 15 km/h
Temperatura: 7°C
Sensación frio: 4°C
Rocío: 4°C
Humedad: 81%
Barómetro: 1029 hPa
Clouds: Parcialmente nuboso
Visibility: 6 km
2018/02/18 03:00 LEAS 180300Z AUTO 23008KT 6000 NSC 07/04 Q1029
 
LECO - La Coruna/Alvedr, Spain
Distance from station: ONO 222km
Actualización: 18/02/2018 04:00
Parcialmente nuboso
Parcialmente nuboso
 Viento del S
Viento: S 4 km/h
Temperatura: 3°C
Rocío: 3°C
Humedad: 100%
Barómetro: 1029 hPa
Clouds: Parcialmente nuboso
Visibility: 9 km
2018/02/18 03:00 LECO 180300Z AUTO 19002KT 9000 NSC 03/03 Q1029
LEVX - Vigo/Peinador, Spain
Distance from station: O 214km
Actualización: 18/02/2018 04:00
Despejado
Despejado
 Viento del varies
Viento: varies 4 km/h
Temperatura: 5°C
Rocío: 1°C
Humedad: 76%
Barómetro: 1027 hPa
Resumen: Despejado
Visibility: greater than 10 km
2018/02/18 03:00 LEVX 180300Z VRB02KT CAVOK 05/01 Q1027 NOSIG